sensor_id;sensor_type;location;lat;lon;timestamp;temperature;humidity
7117;DHT22;3600;48.568;7.870;2024-02-26T00:01:51;8.80;99.90
7117;DHT22;3600;48.568;7.870;2024-02-26T00:04:19;8.70;99.90
7117;DHT22;3600;48.568;7.870;2024-02-26T00:06:46;8.80;99.90
7117;DHT22;3600;48.568;7.870;2024-02-26T00:09:15;8.70;99.90
7117;DHT22;3600;48.568;7.870;2024-02-26T00:11:42;8.60;99.90
7117;DHT22;3600;48.568;7.870;2024-02-26T00:14:09;8.60;99.90
7117;DHT22;3600;48.568;7.870;2024-02-26T00:16:42;8.60;99.90
7117;DHT22;3600;48.568;7.870;2024-02-26T00:19:09;8.60;99.90
7117;DHT22;3600;48.568;7.870;2024-02-26T00:21:40;8.70;99.90
7117;DHT22;3600;48.568;7.870;2024-02-26T00:24:08;8.60;99.90
7117;DHT22;3600;48.568;7.870;2024-02-26T00:26:35;8.60;99.90
7117;DHT22;3600;48.568;7.870;2024-02-26T00:29:02;8.60;99.90
7117;DHT22;3600;48.568;7.870;2024-02-26T00:31:29;8.70;99.90
7117;DHT22;3600;48.568;7.870;2024-02-26T00:33:56;8.80;99.90
7117;DHT22;3600;48.568;7.870;2024-02-26T00:36:24;8.80;99.90
7117;DHT22;3600;48.568;7.870;2024-02-26T00:38:51;8.80;99.90
7117;DHT22;3600;48.568;7.870;2024-02-26T00:41:18;8.70;99.90
7117;DHT22;3600;48.568;7.870;2024-02-26T00:43:46;8.70;99.90
7117;DHT22;3600;48.568;7.870;2024-02-26T00:46:13;8.60;99.90
7117;DHT22;3600;48.568;7.870;2024-02-26T00:48:40;8.60;99.90
7117;DHT22;3600;48.568;7.870;2024-02-26T00:51:07;8.60;99.90
7117;DHT22;3600;48.568;7.870;2024-02-26T00:53:35;8.60;99.90
7117;DHT22;3600;48.568;7.870;2024-02-26T00:56:02;8.60;99.90
7117;DHT22;3600;48.568;7.870;2024-02-26T00:58:29;8.50;99.90
7117;DHT22;3600;48.568;7.870;2024-02-26T01:00:56;8.40;99.90
7117;DHT22;3600;48.568;7.870;2024-02-26T01:03:23;8.40;99.90
7117;DHT22;3600;48.568;7.870;2024-02-26T01:05:51;8.40;99.90
7117;DHT22;3600;48.568;7.870;2024-02-26T01:08:23;8.40;99.90
7117;DHT22;3600;48.568;7.870;2024-02-26T01:10:50;8.40;99.90
7117;DHT22;3600;48.568;7.870;2024-02-26T01:13:18;8.30;99.90
7117;DHT22;3600;48.568;7.870;2024-02-26T01:15:46;8.30;99.90
7117;DHT22;3600;48.568;7.870;2024-02-26T01:18:13;8.30;99.90
7117;DHT22;3600;48.568;7.870;2024-02-26T01:20:40;8.30;99.90
7117;DHT22;3600;48.568;7.870;2024-02-26T01:23:07;8.30;99.90
7117;DHT22;3600;48.568;7.870;2024-02-26T01:25:34;8.30;99.90
7117;DHT22;3600;48.568;7.870;2024-02-26T01:28:01;8.30;99.90
7117;DHT22;3600;48.568;7.870;2024-02-26T01:30:29;8.30;99.90
7117;DHT22;3600;48.568;7.870;2024-02-26T01:32:57;8.20;99.90
7117;DHT22;3600;48.568;7.870;2024-02-26T01:35:24;8.20;99.90
7117;DHT22;3600;48.568;7.870;2024-02-26T01:37:50;8.20;99.90
7117;DHT22;3600;48.568;7.870;2024-02-26T01:40:18;8.20;99.90
7117;DHT22;3600;48.568;7.870;2024-02-26T01:42:46;7.80;99.90
7117;DHT22;3600;48.568;7.870;2024-02-26T01:45:17;7.80;99.90
7117;DHT22;3600;48.568;7.870;2024-02-26T01:47:53;7.90;99.90
7117;DHT22;3600;48.568;7.870;2024-02-26T01:50:22;7.80;99.90
7117;DHT22;3600;48.568;7.870;2024-02-26T01:52:50;7.60;99.90
7117;DHT22;3600;48.568;7.870;2024-02-26T01:55:18;7.50;99.90
7117;DHT22;3600;48.568;7.870;2024-02-26T01:57:49;7.40;99.90
7117;DHT22;3600;48.568;7.870;2024-02-26T02:00:20;7.20;99.90
7117;DHT22;3600;48.568;7.870;2024-02-26T02:02:49;7.20;99.90
7117;DHT22;3600;48.568;7.870;2024-02-26T02:05:18;7.20;99.90
7117;DHT22;3600;48.568;7.870;2024-02-26T02:07:47;7.20;99.90
7117;DHT22;3600;48.568;7.870;2024-02-26T02:10:16;7.10;99.90
7117;DHT22;3600;48.568;7.870;2024-02-26T02:12:45;7.20;99.90
7117;DHT22;3600;48.568;7.870;2024-02-26T02:15:12;7.20;99.90
7117;DHT22;3600;48.568;7.870;2024-02-26T02:17:39;7.30;99.90
7117;DHT22;3600;48.568;7.870;2024-02-26T02:20:15;7.40;99.90
7117;DHT22;3600;48.568;7.870;2024-02-26T02:22:47;7.50;99.90
7117;DHT22;3600;48.568;7.870;2024-02-26T02:25:14;7.50;99.90
7117;DHT22;3600;48.568;7.870;2024-02-26T02:27:42;7.50;99.90
7117;DHT22;3600;48.568;7.870;2024-02-26T02:30:10;7.60;99.90
7117;DHT22;3600;48.568;7.870;2024-02-26T02:32:40;7.50;99.90
7117;DHT22;3600;48.568;7.870;2024-02-26T02:35:10;7.40;99.90
7117;DHT22;3600;48.568;7.870;2024-02-26T02:37:37;7.30;99.90
7117;DHT22;3600;48.568;7.870;2024-02-26T02:40:05;7.30;99.90
7117;DHT22;3600;48.568;7.870;2024-02-26T02:42:33;7.30;99.90
7117;DHT22;3600;48.568;7.870;2024-02-26T02:45:00;7.40;99.90
7117;DHT22;3600;48.568;7.870;2024-02-26T02:47:27;7.50;99.90
7117;DHT22;3600;48.568;7.870;2024-02-26T02:49:55;7.50;99.90
7117;DHT22;3600;48.568;7.870;2024-02-26T02:52:22;7.50;99.90
7117;DHT22;3600;48.568;7.870;2024-02-26T02:54:51;7.30;99.90
7117;DHT22;3600;48.568;7.870;2024-02-26T02:57:19;7.30;99.90
7117;DHT22;3600;48.568;7.870;2024-02-26T02:59:48;7.30;99.90
7117;DHT22;3600;48.568;7.870;2024-02-26T03:02:21;7.20;99.90
7117;DHT22;3600;48.568;7.870;2024-02-26T03:04:51;7.20;99.90
7117;DHT22;3600;48.568;7.870;2024-02-26T03:07:19;7.20;99.90
7117;DHT22;3600;48.568;7.870;2024-02-26T03:09:48;7.20;99.90
7117;DHT22;3600;48.568;7.870;2024-02-26T03:12:15;7.30;99.90
7117;DHT22;3600;48.568;7.870;2024-02-26T03:14:42;7.20;99.90
7117;DHT22;3600;48.568;7.870;2024-02-26T03:17:09;7.30;99.90
7117;DHT22;3600;48.568;7.870;2024-02-26T03:19:37;7.20;99.90
7117;DHT22;3600;48.568;7.870;2024-02-26T03:22:04;7.40;99.90
7117;DHT22;3600;48.568;7.870;2024-02-26T03:24:31;7.30;99.90
7117;DHT22;3600;48.568;7.870;2024-02-26T03:26:58;7.30;99.90
7117;DHT22;3600;48.568;7.870;2024-02-26T03:29:25;7.40;99.90
7117;DHT22;3600;48.568;7.870;2024-02-26T03:31:52;7.50;99.90
7117;DHT22;3600;48.568;7.870;2024-02-26T03:34:20;7.40;99.90
7117;DHT22;3600;48.568;7.870;2024-02-26T03:36:48;7.20;99.90
7117;DHT22;3600;48.568;7.870;2024-02-26T03:39:15;7.10;99.90
7117;DHT22;3600;48.568;7.870;2024-02-26T03:41:42;7.10;99.90
7117;DHT22;3600;48.568;7.870;2024-02-26T03:44:09;7.10;99.90
7117;DHT22;3600;48.568;7.870;2024-02-26T03:46:36;7.20;99.90
7117;DHT22;3600;48.568;7.870;2024-02-26T03:49:03;7.30;99.90
7117;DHT22;3600;48.568;7.870;2024-02-26T03:51:32;7.30;99.90
7117;DHT22;3600;48.568;7.870;2024-02-26T03:54:00;7.20;99.90
7117;DHT22;3600;48.568;7.870;2024-02-26T03:56:28;7.20;99.90
7117;DHT22;3600;48.568;7.870;2024-02-26T03:58:55;7.30;99.90
7117;DHT22;3600;48.568;7.870;2024-02-26T04:01:22;7.30;99.90
7117;DHT22;3600;48.568;7.870;2024-02-26T04:03:49;7.20;99.90
7117;DHT22;3600;48.568;7.870;2024-02-26T04:06:16;7.10;99.90
7117;DHT22;3600;48.568;7.870;2024-02-26T04:08:48;7.20;99.90
7117;DHT22;3600;48.568;7.870;2024-02-26T04:11:15;7.30;99.90
7117;DHT22;3600;48.568;7.870;2024-02-26T04:13:45;7.40;99.90
7117;DHT22;3600;48.568;7.870;2024-02-26T04:16:17;7.50;99.90
7117;DHT22;3600;48.568;7.870;2024-02-26T04:18:45;7.50;99.90
7117;DHT22;3600;48.568;7.870;2024-02-26T04:21:12;7.60;99.90
7117;DHT22;3600;48.568;7.870;2024-02-26T04:23:39;7.60;99.90
7117;DHT22;3600;48.568;7.870;2024-02-26T04:26:06;7.60;99.90
7117;DHT22;3600;48.568;7.870;2024-02-26T04:28:39;7.60;99.90
7117;DHT22;3600;48.568;7.870;2024-02-26T04:31:06;7.60;99.90
7117;DHT22;3600;48.568;7.870;2024-02-26T04:33:34;7.60;99.90
7117;DHT22;3600;48.568;7.870;2024-02-26T04:36:02;7.60;99.90
7117;DHT22;3600;48.568;7.870;2024-02-26T04:38:29;7.60;99.90
7117;DHT22;3600;48.568;7.870;2024-02-26T04:40:56;7.60;99.90
7117;DHT22;3600;48.568;7.870;2024-02-26T04:43:23;7.60;99.90
7117;DHT22;3600;48.568;7.870;2024-02-26T04:45:50;7.60;99.90
7117;DHT22;3600;48.568;7.870;2024-02-26T04:48:17;7.60;99.90
7117;DHT22;3600;48.568;7.870;2024-02-26T04:50:44;7.60;99.90
7117;DHT22;3600;48.568;7.870;2024-02-26T04:53:11;7.60;99.90
7117;DHT22;3600;48.568;7.870;2024-02-26T04:55:38;7.60;99.90
7117;DHT22;3600;48.568;7.870;2024-02-26T04:58:05;7.70;99.90
7117;DHT22;3600;48.568;7.870;2024-02-26T05:00:32;7.70;99.90
7117;DHT22;3600;48.568;7.870;2024-02-26T05:02:59;7.70;99.90
7117;DHT22;3600;48.568;7.870;2024-02-26T05:05:26;7.60;99.90
7117;DHT22;3600;48.568;7.870;2024-02-26T05:07:53;7.70;99.90
7117;DHT22;3600;48.568;7.870;2024-02-26T05:10:20;7.70;99.90
7117;DHT22;3600;48.568;7.870;2024-02-26T05:12:47;7.70;99.90
7117;DHT22;3600;48.568;7.870;2024-02-26T05:15:14;7.70;99.90
7117;DHT22;3600;48.568;7.870;2024-02-26T05:17:45;7.70;99.90
7117;DHT22;3600;48.568;7.870;2024-02-26T05:20:12;7.60;99.90
7117;DHT22;3600;48.568;7.870;2024-02-26T05:22:39;7.60;99.90
7117;DHT22;3600;48.568;7.870;2024-02-26T05:25:06;7.60;99.90
7117;DHT22;3600;48.568;7.870;2024-02-26T05:27:33;7.60;99.90
7117;DHT22;3600;48.568;7.870;2024-02-26T05:30:00;7.60;99.90
7117;DHT22;3600;48.568;7.870;2024-02-26T05:32:27;7.60;99.90
7117;DHT22;3600;48.568;7.870;2024-02-26T05:34:54;7.60;99.90
7117;DHT22;3600;48.568;7.870;2024-02-26T05:37:22;7.60;99.90
7117;DHT22;3600;48.568;7.870;2024-02-26T05:39:49;7.70;99.90
7117;DHT22;3600;48.568;7.870;2024-02-26T05:42:16;7.70;99.90
7117;DHT22;3600;48.568;7.870;2024-02-26T05:44:43;7.60;99.90
7117;DHT22;3600;48.568;7.870;2024-02-26T05:47:10;7.70;99.90
7117;DHT22;3600;48.568;7.870;2024-02-26T05:49:37;7.60;99.90
7117;DHT22;3600;48.568;7.870;2024-02-26T05:52:04;7.60;99.90
7117;DHT22;3600;48.568;7.870;2024-02-26T05:54:31;7.70;99.90
7117;DHT22;3600;48.568;7.870;2024-02-26T05:56:58;7.70;99.90
7117;DHT22;3600;48.568;7.870;2024-02-26T05:59:25;7.70;99.90
7117;DHT22;3600;48.568;7.870;2024-02-26T06:01:53;7.70;99.90
7117;DHT22;3600;48.568;7.870;2024-02-26T06:04:19;7.60;99.90
7117;DHT22;3600;48.568;7.870;2024-02-26T06:06:47;7.60;99.90
7117;DHT22;3600;48.568;7.870;2024-02-26T06:09:14;7.70;99.90
7117;DHT22;3600;48.568;7.870;2024-02-26T06:11:41;7.60;99.90
7117;DHT22;3600;48.568;7.870;2024-02-26T06:14:08;7.70;99.90
7117;DHT22;3600;48.568;7.870;2024-02-26T06:16:36;7.70;99.90
7117;DHT22;3600;48.568;7.870;2024-02-26T06:19:03;7.60;99.90
7117;DHT22;3600;48.568;7.870;2024-02-26T06:21:30;7.50;99.90
7117;DHT22;3600;48.568;7.870;2024-02-26T06:23:57;7.40;99.90
7117;DHT22;3600;48.568;7.870;2024-02-26T06:26:25;7.50;99.90
7117;DHT22;3600;48.568;7.870;2024-02-26T06:28:55;7.50;99.90
7117;DHT22;3600;48.568;7.870;2024-02-26T06:31:23;7.50;99.90
7117;DHT22;3600;48.568;7.870;2024-02-26T06:33:50;7.40;99.90
7117;DHT22;3600;48.568;7.870;2024-02-26T06:36:17;7.30;99.90
7117;DHT22;3600;48.568;7.870;2024-02-26T06:38:44;7.30;99.90
7117;DHT22;3600;48.568;7.870;2024-02-26T06:41:11;7.20;99.90
7117;DHT22;3600;48.568;7.870;2024-02-26T06:43:38;7.20;99.90
7117;DHT22;3600;48.568;7.870;2024-02-26T06:46:06;7.20;99.90
7117;DHT22;3600;48.568;7.870;2024-02-26T06:48:33;7.10;99.90
7117;DHT22;3600;48.568;7.870;2024-02-26T06:51:00;7.10;99.90
7117;DHT22;3600;48.568;7.870;2024-02-26T06:53:27;7.20;99.90
7117;DHT22;3600;48.568;7.870;2024-02-26T06:55:54;7.20;99.90
7117;DHT22;3600;48.568;7.870;2024-02-26T06:58:21;7.30;99.90
7117;DHT22;3600;48.568;7.870;2024-02-26T07:00:48;7.40;99.90
7117;DHT22;3600;48.568;7.870;2024-02-26T07:03:15;7.50;99.90
7117;DHT22;3600;48.568;7.870;2024-02-26T07:05:44;7.40;99.90
7117;DHT22;3600;48.568;7.870;2024-02-26T07:08:13;7.40;99.90
7117;DHT22;3600;48.568;7.870;2024-02-26T07:10:40;7.40;99.90
7117;DHT22;3600;48.568;7.870;2024-02-26T07:13:07;7.40;99.90
7117;DHT22;3600;48.568;7.870;2024-02-26T07:15:34;7.40;99.90
7117;DHT22;3600;48.568;7.870;2024-02-26T07:18:01;7.40;99.90
7117;DHT22;3600;48.568;7.870;2024-02-26T07:20:31;7.30;99.90
7117;DHT22;3600;48.568;7.870;2024-02-26T07:22:58;7.40;99.90
7117;DHT22;3600;48.568;7.870;2024-02-26T07:25:25;7.30;99.90
7117;DHT22;3600;48.568;7.870;2024-02-26T07:27:52;7.20;99.90
7117;DHT22;3600;48.568;7.870;2024-02-26T07:34:05;7.10;99.90
7117;DHT22;3600;48.568;7.870;2024-02-26T07:36:32;7.10;99.90
7117;DHT22;3600;48.568;7.870;2024-02-26T07:38:59;7.30;99.90
7117;DHT22;3600;48.568;7.870;2024-02-26T07:41:28;7.40;99.90
7117;DHT22;3600;48.568;7.870;2024-02-26T07:43:54;7.40;99.90
7117;DHT22;3600;48.568;7.870;2024-02-26T07:46:21;7.30;99.90
7117;DHT22;3600;48.568;7.870;2024-02-26T07:48:49;7.30;99.90
7117;DHT22;3600;48.568;7.870;2024-02-26T07:51:17;7.30;99.90
7117;DHT22;3600;48.568;7.870;2024-02-26T07:53:44;7.30;99.90
7117;DHT22;3600;48.568;7.870;2024-02-26T07:56:11;7.30;99.90
7117;DHT22;3600;48.568;7.870;2024-02-26T07:58:38;7.30;99.90
7117;DHT22;3600;48.568;7.870;2024-02-26T08:01:05;7.40;99.90
7117;DHT22;3600;48.568;7.870;2024-02-26T08:03:32;7.40;99.90
7117;DHT22;3600;48.568;7.870;2024-02-26T08:05:59;7.40;99.90
7117;DHT22;3600;48.568;7.870;2024-02-26T08:08:26;7.40;99.90
7117;DHT22;3600;48.568;7.870;2024-02-26T08:10:53;7.50;99.90
7117;DHT22;3600;48.568;7.870;2024-02-26T08:13:21;7.50;99.90
7117;DHT22;3600;48.568;7.870;2024-02-26T08:15:48;7.50;99.90
7117;DHT22;3600;48.568;7.870;2024-02-26T08:18:15;7.50;99.90
7117;DHT22;3600;48.568;7.870;2024-02-26T08:20:43;7.50;99.90
7117;DHT22;3600;48.568;7.870;2024-02-26T08:23:12;7.50;99.90
7117;DHT22;3600;48.568;7.870;2024-02-26T08:25:39;7.50;99.90
7117;DHT22;3600;48.568;7.870;2024-02-26T08:28:06;7.60;99.90
7117;DHT22;3600;48.568;7.870;2024-02-26T08:30:33;7.60;99.90
7117;DHT22;3600;48.568;7.870;2024-02-26T08:33:01;7.70;99.90
7117;DHT22;3600;48.568;7.870;2024-02-26T08:35:28;7.60;99.90
7117;DHT22;3600;48.568;7.870;2024-02-26T08:37:55;7.60;99.90
7117;DHT22;3600;48.568;7.870;2024-02-26T08:40:22;7.70;99.90
7117;DHT22;3600;48.568;7.870;2024-02-26T08:42:49;7.70;99.90
7117;DHT22;3600;48.568;7.870;2024-02-26T08:45:16;7.80;99.90
7117;DHT22;3600;48.568;7.870;2024-02-26T08:47:45;7.70;99.90
7117;DHT22;3600;48.568;7.870;2024-02-26T08:50:14;7.70;99.90
7117;DHT22;3600;48.568;7.870;2024-02-26T08:52:41;7.80;99.90
7117;DHT22;3600;48.568;7.870;2024-02-26T08:55:08;7.70;99.90
7117;DHT22;3600;48.568;7.870;2024-02-26T08:57:35;7.80;99.90
7117;DHT22;3600;48.568;7.870;2024-02-26T09:00:02;7.80;99.90
7117;DHT22;3600;48.568;7.870;2024-02-26T09:02:30;7.90;99.90
7117;DHT22;3600;48.568;7.870;2024-02-26T09:04:57;7.80;99.90
7117;DHT22;3600;48.568;7.870;2024-02-26T09:07:24;8.00;99.90
7117;DHT22;3600;48.568;7.870;2024-02-26T09:09:52;8.00;99.90
7117;DHT22;3600;48.568;7.870;2024-02-26T09:12:21;8.10;99.90
7117;DHT22;3600;48.568;7.870;2024-02-26T09:14:48;8.20;99.90
7117;DHT22;3600;48.568;7.870;2024-02-26T09:17:15;8.20;99.90
7117;DHT22;3600;48.568;7.870;2024-02-26T09:19:45;8.30;99.90
7117;DHT22;3600;48.568;7.870;2024-02-26T09:22:13;8.30;99.90
7117;DHT22;3600;48.568;7.870;2024-02-26T09:24:44;8.40;99.90
7117;DHT22;3600;48.568;7.870;2024-02-26T09:27:11;8.30;99.90
7117;DHT22;3600;48.568;7.870;2024-02-26T09:29:39;8.40;99.90
7117;DHT22;3600;48.568;7.870;2024-02-26T09:32:06;8.60;99.90
7117;DHT22;3600;48.568;7.870;2024-02-26T09:34:33;8.60;99.90
7117;DHT22;3600;48.568;7.870;2024-02-26T09:37:02;8.60;99.90
7117;DHT22;3600;48.568;7.870;2024-02-26T09:39:41;8.60;99.90
7117;DHT22;3600;48.568;7.870;2024-02-26T09:42:12;8.70;99.90
7117;DHT22;3600;48.568;7.870;2024-02-26T09:44:40;8.60;99.90
7117;DHT22;3600;48.568;7.870;2024-02-26T09:47:11;8.70;99.90
7117;DHT22;3600;48.568;7.870;2024-02-26T09:49:38;8.60;99.90
7117;DHT22;3600;48.568;7.870;2024-02-26T09:52:06;8.80;99.90
7117;DHT22;3600;48.568;7.870;2024-02-26T09:54:35;8.80;99.90
7117;DHT22;3600;48.568;7.870;2024-02-26T09:57:03;8.90;99.90
7117;DHT22;3600;48.568;7.870;2024-02-26T09:59:39;8.90;99.90
7117;DHT22;3600;48.568;7.870;2024-02-26T10:02:12;9.00;99.90
7117;DHT22;3600;48.568;7.870;2024-02-26T10:04:41;8.90;99.90
7117;DHT22;3600;48.568;7.870;2024-02-26T10:07:13;8.90;99.90
7117;DHT22;3600;48.568;7.870;2024-02-26T10:09:40;9.00;99.90
7117;DHT22;3600;48.568;7.870;2024-02-26T10:12:10;9.10;99.90
7117;DHT22;3600;48.568;7.870;2024-02-26T10:14:57;9.10;99.90
7117;DHT22;3600;48.568;7.870;2024-02-26T10:17:25;9.10;99.90
7117;DHT22;3600;48.568;7.870;2024-02-26T10:19:52;9.20;99.90
7117;DHT22;3600;48.568;7.870;2024-02-26T10:22:23;9.20;99.90
7117;DHT22;3600;48.568;7.870;2024-02-26T10:24:50;9.20;99.90
7117;DHT22;3600;48.568;7.870;2024-02-26T10:27:17;9.10;99.90
7117;DHT22;3600;48.568;7.870;2024-02-26T10:29:45;9.00;99.90
7117;DHT22;3600;48.568;7.870;2024-02-26T10:32:14;9.10;99.90
7117;DHT22;3600;48.568;7.870;2024-02-26T10:34:41;9.20;99.90
7117;DHT22;3600;48.568;7.870;2024-02-26T10:37:10;9.40;99.90
7117;DHT22;3600;48.568;7.870;2024-02-26T10:39:37;9.40;99.90
7117;DHT22;3600;48.568;7.870;2024-02-26T10:42:05;9.30;99.90
7117;DHT22;3600;48.568;7.870;2024-02-26T10:44:36;9.50;99.90
7117;DHT22;3600;48.568;7.870;2024-02-26T10:47:03;9.60;99.90
7117;DHT22;3600;48.568;7.870;2024-02-26T10:49:32;9.60;99.90
7117;DHT22;3600;48.568;7.870;2024-02-26T10:52:01;9.60;99.90
7117;DHT22;3600;48.568;7.870;2024-02-26T10:54:32;9.60;99.90
7117;DHT22;3600;48.568;7.870;2024-02-26T10:57:01;9.60;99.90
7117;DHT22;3600;48.568;7.870;2024-02-26T10:59:29;9.60;99.90
7117;DHT22;3600;48.568;7.870;2024-02-26T11:01:57;9.80;99.90
7117;DHT22;3600;48.568;7.870;2024-02-26T11:04:26;9.90;99.90
7117;DHT22;3600;48.568;7.870;2024-02-26T11:06:57;10.10;99.90
7117;DHT22;3600;48.568;7.870;2024-02-26T11:09:25;9.90;99.90
7117;DHT22;3600;48.568;7.870;2024-02-26T11:11:53;9.90;99.90
7117;DHT22;3600;48.568;7.870;2024-02-26T11:14:23;10.00;99.90
7117;DHT22;3600;48.568;7.870;2024-02-26T11:16:53;10.20;99.90
7117;DHT22;3600;48.568;7.870;2024-02-26T11:19:22;10.20;99.90
7117;DHT22;3600;48.568;7.870;2024-02-26T11:21:51;10.20;99.90
7117;DHT22;3600;48.568;7.870;2024-02-26T11:24:18;10.30;99.90
7117;DHT22;3600;48.568;7.870;2024-02-26T11:26:52;10.40;99.90
7117;DHT22;3600;48.568;7.870;2024-02-26T11:29:51;10.40;99.90
7117;DHT22;3600;48.568;7.870;2024-02-26T11:32:19;10.40;99.90
7117;DHT22;3600;48.568;7.870;2024-02-26T11:34:47;10.40;99.90
7117;DHT22;3600;48.568;7.870;2024-02-26T11:37:17;10.40;99.90
7117;DHT22;3600;48.568;7.870;2024-02-26T11:39:45;10.40;99.90
7117;DHT22;3600;48.568;7.870;2024-02-26T11:42:16;10.50;99.90
7117;DHT22;3600;48.568;7.870;2024-02-26T11:44:43;10.60;99.90
7117;DHT22;3600;48.568;7.870;2024-02-26T11:47:18;10.70;99.90
7117;DHT22;3600;48.568;7.870;2024-02-26T11:49:46;10.90;99.90
7117;DHT22;3600;48.568;7.870;2024-02-26T11:52:15;10.90;99.90
7117;DHT22;3600;48.568;7.870;2024-02-26T11:54:43;10.90;99.90
7117;DHT22;3600;48.568;7.870;2024-02-26T11:57:27;10.90;99.90
7117;DHT22;3600;48.568;7.870;2024-02-26T11:59:56;10.80;99.90
7117;DHT22;3600;48.568;7.870;2024-02-26T12:05:15;11.00;99.90
7117;DHT22;3600;48.568;7.870;2024-02-26T12:07:48;11.20;99.90
7117;DHT22;3600;48.568;7.870;2024-02-26T12:10:26;11.20;99.90
7117;DHT22;3600;48.568;7.870;2024-02-26T12:12:59;11.30;99.90
7117;DHT22;3600;48.568;7.870;2024-02-26T12:15:36;11.30;99.90
7117;DHT22;3600;48.568;7.870;2024-02-26T12:18:05;11.30;99.90
7117;DHT22;3600;48.568;7.870;2024-02-26T12:20:34;11.40;99.90
7117;DHT22;3600;48.568;7.870;2024-02-26T12:23:03;11.40;99.90
7117;DHT22;3600;48.568;7.870;2024-02-26T12:25:33;11.40;99.90
7117;DHT22;3600;48.568;7.870;2024-02-26T12:28:07;11.60;99.90
7117;DHT22;3600;48.568;7.870;2024-02-26T12:30:37;11.60;99.90
7117;DHT22;3600;48.568;7.870;2024-02-26T12:33:19;11.70;99.90
7117;DHT22;3600;48.568;7.870;2024-02-26T12:35:47;11.70;99.90
7117;DHT22;3600;48.568;7.870;2024-02-26T12:38:23;11.80;99.90
7117;DHT22;3600;48.568;7.870;2024-02-26T12:40:55;11.80;99.90
7117;DHT22;3600;48.568;7.870;2024-02-26T12:43:33;11.90;99.90
7117;DHT22;3600;48.568;7.870;2024-02-26T12:46:13;11.90;99.90
7117;DHT22;3600;48.568;7.870;2024-02-26T12:51:54;11.80;99.90
7117;DHT22;3600;48.568;7.870;2024-02-26T12:54:31;11.90;99.90
7117;DHT22;3600;48.568;7.870;2024-02-26T12:57:02;11.90;99.90
7117;DHT22;3600;48.568;7.870;2024-02-26T12:59:30;12.00;99.90
7117;DHT22;3600;48.568;7.870;2024-02-26T13:02:00;11.90;99.90
7117;DHT22;3600;48.568;7.870;2024-02-26T13:04:39;12.00;99.90
7117;DHT22;3600;48.568;7.870;2024-02-26T13:07:13;11.90;99.90
7117;DHT22;3600;48.568;7.870;2024-02-26T13:10:19;11.90;99.90
7117;DHT22;3600;48.568;7.870;2024-02-26T13:13:05;12.00;99.90
7117;DHT22;3600;48.568;7.870;2024-02-26T13:15:47;12.00;99.90
7117;DHT22;3600;48.568;7.870;2024-02-26T13:18:27;12.00;99.90
7117;DHT22;3600;48.568;7.870;2024-02-26T13:21:14;12.00;99.90
7117;DHT22;3600;48.568;7.870;2024-02-26T13:23:59;12.00;99.90
7117;DHT22;3600;48.568;7.870;2024-02-26T13:26:41;11.90;99.90
7117;DHT22;3600;48.568;7.870;2024-02-26T13:29:28;12.00;99.90
7117;DHT22;3600;48.568;7.870;2024-02-26T13:32:01;12.10;99.90
7117;DHT22;3600;48.568;7.870;2024-02-26T13:34:30;12.00;99.90
7117;DHT22;3600;48.568;7.870;2024-02-26T13:37:01;12.00;99.90
7117;DHT22;3600;48.568;7.870;2024-02-26T13:39:28;12.00;99.90
7117;DHT22;3600;48.568;7.870;2024-02-26T13:41:58;12.10;99.90
7117;DHT22;3600;48.568;7.870;2024-02-26T13:44:25;12.10;99.90
7117;DHT22;3600;48.568;7.870;2024-02-26T13:46:58;12.00;99.90
7117;DHT22;3600;48.568;7.870;2024-02-26T13:49:52;12.00;99.90
7117;DHT22;3600;48.568;7.870;2024-02-26T13:52:35;12.00;99.90
7117;DHT22;3600;48.568;7.870;2024-02-26T13:55:02;12.10;99.90
7117;DHT22;3600;48.568;7.870;2024-02-26T13:57:30;12.00;99.90
7117;DHT22;3600;48.568;7.870;2024-02-26T14:00:00;12.00;99.90
7117;DHT22;3600;48.568;7.870;2024-02-26T14:02:27;12.10;99.90
7117;DHT22;3600;48.568;7.870;2024-02-26T14:05:11;12.10;99.90
7117;DHT22;3600;48.568;7.870;2024-02-26T14:07:48;12.00;99.90
7117;DHT22;3600;48.568;7.870;2024-02-26T14:10:25;12.00;99.90
7117;DHT22;3600;48.568;7.870;2024-02-26T14:13:28;11.90;99.90
7117;DHT22;3600;48.568;7.870;2024-02-26T14:16:09;11.90;99.90
7117;DHT22;3600;48.568;7.870;2024-02-26T14:18:39;11.90;99.90
7117;DHT22;3600;48.568;7.870;2024-02-26T14:21:17;12.00;99.90
7117;DHT22;3600;48.568;7.870;2024-02-26T14:23:44;12.00;99.90
7117;DHT22;3600;48.568;7.870;2024-02-26T14:26:11;12.00;99.90
7117;DHT22;3600;48.568;7.870;2024-02-26T14:28:39;12.00;99.90
7117;DHT22;3600;48.568;7.870;2024-02-26T14:31:09;12.00;99.90
7117;DHT22;3600;48.568;7.870;2024-02-26T14:33:38;12.00;99.90
7117;DHT22;3600;48.568;7.870;2024-02-26T14:36:07;12.00;99.90
7117;DHT22;3600;48.568;7.870;2024-02-26T14:38:34;12.00;99.90
7117;DHT22;3600;48.568;7.870;2024-02-26T14:41:02;12.00;99.90
7117;DHT22;3600;48.568;7.870;2024-02-26T14:43:30;12.00;99.90
7117;DHT22;3600;48.568;7.870;2024-02-26T14:45:58;12.00;99.90
7117;DHT22;3600;48.568;7.870;2024-02-26T14:48:26;12.00;99.90
7117;DHT22;3600;48.568;7.870;2024-02-26T14:50:53;12.00;99.90
7117;DHT22;3600;48.568;7.870;2024-02-26T14:53:21;12.00;99.90
7117;DHT22;3600;48.568;7.870;2024-02-26T14:55:48;12.00;99.90
7117;DHT22;3600;48.568;7.870;2024-02-26T14:58:16;12.00;99.90
7117;DHT22;3600;48.568;7.870;2024-02-26T15:00:52;12.00;99.90
7117;DHT22;3600;48.568;7.870;2024-02-26T15:03:19;12.00;99.90
7117;DHT22;3600;48.568;7.870;2024-02-26T15:05:46;12.00;99.90
7117;DHT22;3600;48.568;7.870;2024-02-26T15:08:14;12.10;99.90
7117;DHT22;3600;48.568;7.870;2024-02-26T15:10:43;12.00;99.90
7117;DHT22;3600;48.568;7.870;2024-02-26T15:13:15;12.00;99.90
7117;DHT22;3600;48.568;7.870;2024-02-26T15:15:45;12.00;99.90
7117;DHT22;3600;48.568;7.870;2024-02-26T15:18:12;12.10;99.90
7117;DHT22;3600;48.568;7.870;2024-02-26T15:20:43;12.10;99.90
7117;DHT22;3600;48.568;7.870;2024-02-26T15:23:10;12.10;99.90
7117;DHT22;3600;48.568;7.870;2024-02-26T15:33:23;12.00;99.90
7117;DHT22;3600;48.568;7.870;2024-02-26T15:35:51;12.00;99.90
7117;DHT22;3600;48.568;7.870;2024-02-26T15:38:18;12.00;99.90
7117;DHT22;3600;48.568;7.870;2024-02-26T15:40:45;12.00;99.90
7117;DHT22;3600;48.568;7.870;2024-02-26T15:43:14;12.10;99.90
7117;DHT22;3600;48.568;7.870;2024-02-26T15:45:42;12.10;99.90
7117;DHT22;3600;48.568;7.870;2024-02-26T15:48:13;12.10;99.90
7117;DHT22;3600;48.568;7.870;2024-02-26T15:50:45;12.10;99.90
7117;DHT22;3600;48.568;7.870;2024-02-26T15:53:15;12.00;99.90
7117;DHT22;3600;48.568;7.870;2024-02-26T15:55:42;12.10;99.90
7117;DHT22;3600;48.568;7.870;2024-02-26T15:58:09;12.10;99.90
7117;DHT22;3600;48.568;7.870;2024-02-26T16:00:41;12.10;99.90
7117;DHT22;3600;48.568;7.870;2024-02-26T16:03:09;12.10;99.90
7117;DHT22;3600;48.568;7.870;2024-02-26T16:05:37;12.10;99.90
7117;DHT22;3600;48.568;7.870;2024-02-26T16:08:17;12.10;99.90
7117;DHT22;3600;48.568;7.870;2024-02-26T16:10:48;12.10;99.90
7117;DHT22;3600;48.568;7.870;2024-02-26T16:13:16;12.10;99.90
7117;DHT22;3600;48.568;7.870;2024-02-26T16:15:58;12.10;99.90
7117;DHT22;3600;48.568;7.870;2024-02-26T16:18:27;12.00;99.90
7117;DHT22;3600;48.568;7.870;2024-02-26T16:20:54;12.00;99.90
7117;DHT22;3600;48.568;7.870;2024-02-26T16:23:22;12.00;99.90
7117;DHT22;3600;48.568;7.870;2024-02-26T16:25:49;12.00;99.90
7117;DHT22;3600;48.568;7.870;2024-02-26T16:35:55;11.90;99.90
7117;DHT22;3600;48.568;7.870;2024-02-26T16:38:23;11.90;99.90
7117;DHT22;3600;48.568;7.870;2024-02-26T16:40:50;11.80;99.90
7117;DHT22;3600;48.568;7.870;2024-02-26T16:43:18;11.80;99.90
7117;DHT22;3600;48.568;7.870;2024-02-26T16:45:48;11.70;99.90
7117;DHT22;3600;48.568;7.870;2024-02-26T16:48:16;11.80;99.90
7117;DHT22;3600;48.568;7.870;2024-02-26T16:50:43;11.80;99.90